KNMM

Meridian NAS / Mc Cain Field Airport

Meridian, Mississippi, USA
METAR KNMM 191756Z 10004KT 10SM SCT048 34/21 A2999 RMK AO2 SLP162 T03440211 10344 20217 58010
Observed Flight Rules
Sep-19 @ 17:56 UTC (an hour ago) Visual Flight Rules
Wind Visibility Clouds
100° at 4 knots 10 miles
  • Scattered at 4,800' AGL
Temperatures Readings
Current 34°C / 93°F
Dewpoint 21°C / 70°F
Humidity 47%
Altimeter 29.99" Hg
Pressure 1016.2 hPa
Elevation 97
METAR KNMM 191756Z 10004KT 10SM SCT048 34/21 A2999 RMK AO2 SLP162 T03440211 10344 20217 58010
Observed Flight Rules
Sep-19 @ 17:56 UTC
(an hour ago)
VFR
Wind Visibility
100° at 4 knots 10 miles
Clouds
  • Scattered at 4,800' AGL
Temperature Dewpoint
34°C / 93°F 21°C / 70°F
Humidity Altimeter Pressure
47% 29.99" Hg 1016.2 hPa